Time;durP1;ratioP1;P1;durP2;ratioP2;P2;SDS_P1;SDS_P2;PMS_P1;PMS_P2;Temp;Humidity;BMP_temperature;BMP_pressure;BME280_temperature;BME280_humidity;BME280_pressure;Samples;Min_cycle;Max_cycle;Signal;HPM_P1;HPM_P2
2022/04/06 00:02:06;;;;;;;18.33;7.28;;;;;;;8.66;89.44;100393.69;5097088;28;20028;-68
2022/04/06 00:04:32;;;;;;;28.58;8.02;;;;;;;8.62;89.52;100387.59;5109856;28;20031;-71
2022/04/06 00:06:57;;;;;;;23.38;7.82;;;;;;;8.63;89.55;100389.38;5098391;28;20039;-69
2022/04/06 00:09:23;;;;;;;21.67;7.72;;;;;;;8.61;89.02;100377.75;5096455;28;20016;-74
2022/04/06 00:11:49;;;;;;;20.05;8.00;;;;;;;8.61;89.00;100377.75;5097604;28;20044;-73
2022/04/06 00:14:16;;;;;;;20.98;7.10;;;;;;;8.61;89.42;100385.00;5090936;28;20024;-68
2022/04/06 00:16:43;;;;;;;22.65;7.18;;;;;;;8.57;89.19;100376.22;5093885;28;20063;-68
2022/04/06 00:19:08;;;;;;;21.40;6.72;;;;;;;8.57;89.40;100375.34;5100674;27;20036;-72
2022/04/06 00:21:34;;;;;;;16.77;6.65;;;;;;;8.56;89.50;100379.91;5121270;27;20039;-73
2022/04/06 00:23:59;;;;;;;23.23;6.72;;;;;;;8.55;89.43;100380.03;5092319;28;20478;-71
2022/04/06 00:26:25;;;;;;;28.02;7.40;;;;;;;8.53;89.16;100366.56;5110002;28;20047;-72
2022/04/06 00:28:51;;;;;;;28.77;7.13;;;;;;;8.56;89.13;100379.06;5091075;28;20059;-72
2022/04/06 00:31:16;;;;;;;24.75;6.38;;;;;;;8.56;88.89;100374.50;5109145;28;20024;-70
2022/04/06 00:33:42;;;;;;;22.00;5.80;;;;;;;8.56;89.41;100370.91;5096633;28;20077;-75
2022/04/06 00:36:07;;;;;;;29.60;7.53;;;;;;;8.51;89.31;100360.41;5094540;28;20282;-74
2022/04/06 00:38:33;;;;;;;11.80;6.43;;;;;;;8.51;89.48;100360.41;5103957;28;20024;-68
2022/04/06 00:40:58;;;;;;;16.73;6.85;;;;;;;8.52;89.45;100363.97;5111330;28;20378;-73
2022/04/06 00:43:24;;;;;;;22.88;7.28;;;;;;;8.52;89.36;100366.69;5103270;28;20031;-72
2022/04/06 00:45:49;;;;;;;23.10;7.20;;;;;;;8.50;89.43;100368.66;5093969;28;20077;-72
2022/04/06 00:48:15;;;;;;;16.52;7.20;;;;;;;8.50;89.11;100357.81;5095707;28;20080;-69
2022/04/06 00:50:43;;;;;;;22.45;6.45;;;;;;;8.49;89.00;100361.50;5109822;28;20049;-68
2022/04/06 00:53:12;;;;;;;15.90;6.72;;;;;;;8.50;88.70;100363.25;5096460;28;20031;-70
2022/04/06 00:55:39;;;;;;;19.05;6.22;;;;;;;8.50;88.99;100364.09;5110457;28;20031;-72
2022/04/06 00:58:06;;;;;;;16.63;6.65;;;;;;;8.50;89.21;100364.09;5102439;28;20062;-75
2022/04/06 01:00:32;;;;;;;17.77;6.40;;;;;;;8.49;89.17;100365.09;5095091;28;20080;-72
2022/04/06 01:02:58;;;;;;;19.50;5.65;;;;;;;8.49;89.06;100356.09;5093144;28;20039;-71
2022/04/06 01:05:25;;;;;;;12.15;5.60;;;;;;;8.47;88.70;100353.47;5108507;28;20114;-72
2022/04/06 01:07:52;;;;;;;21.25;6.25;;;;;;;8.48;88.74;100344.34;5107089;28;20122;-72
2022/04/06 01:10:18;;;;;;;17.05;6.18;;;;;;;8.44;88.84;100340.16;5089316;28;20549;-71
2022/04/06 01:12:46;;;;;;;20.92;6.57;;;;;;;8.46;88.69;100343.59;5107598;28;20027;-72
2022/04/06 01:15:12;;;;;;;19.48;6.53;;;;;;;8.44;88.93;100340.16;5107642;28;20047;-75
2022/04/06 01:17:37;;;;;;;16.55;6.80;;;;;;;8.45;88.79;100338.31;5098658;28;20038;-68
2022/04/06 01:20:08;;;;;;;19.80;5.25;;;;;;;8.40;88.68;100336.78;5102125;28;20143;-72
2022/04/06 01:22:34;;;;;;;17.00;5.47;;;;;;;8.43;88.38;100336.56;5089800;28;20031;-72
2022/04/06 01:25:01;;;;;;;12.38;4.90;;;;;;;8.42;89.21;100334.81;5096478;28;20058;-74
2022/04/06 01:27:26;;;;;;;23.60;5.57;;;;;;;8.41;88.37;100334.94;5090650;28;20032;-74
2022/04/06 01:29:52;;;;;;;20.80;5.55;;;;;;;8.41;88.61;100332.22;5097925;28;20084;-74
2022/04/06 01:32:27;;;;;;;19.85;5.82;;;;;;;8.39;88.72;100339.59;5101863;28;20032;-74
2022/04/06 01:34:54;;;;;;;24.95;6.25;;;;;;;8.39;88.70;100328.75;5110054;28;20039;-73
2022/04/06 01:37:23;;;;;;;26.75;5.65;;;;;;;8.38;88.09;100327.88;5097826;28;20015;-67
2022/04/06 01:39:49;;;;;;;13.65;4.95;;;;;;;8.37;88.38;100333.44;5099794;28;20123;-72
2022/04/06 01:42:17;;;;;;;16.20;5.13;;;;;;;8.39;88.33;100332.34;5122323;27;20485;-74
2022/04/06 01:44:45;;;;;;;18.00;5.32;;;;;;;8.38;88.38;100335.16;5115192;27;20656;-67
2022/04/06 01:47:12;;;;;;;28.95;6.22;;;;;;;8.37;88.45;100326.16;5098106;28;20030;-70
2022/04/06 01:52:23;;;;;;;10.38;4.63;;;;;;;8.36;87.75;100318.13;5099563;28;20576;-70
2022/04/06 01:55:00;;;;;;;16.35;4.68;;;;;;;8.35;87.69;100325.38;5101265;28;20119;-70
2022/04/06 01:57:27;;;;;;;12.25;4.00;;;;;;;8.35;88.44;100321.81;5100951;28;20122;-75
2022/04/06 01:59:53;;;;;;;11.30;4.10;;;;;;;8.32;87.81;100317.47;5092688;28;20040;-72
2022/04/06 02:02:21;;;;;;;24.27;5.63;;;;;;;8.33;87.59;100315.63;5093455;28;20039;-72
2022/04/06 02:04:47;;;;;;;20.02;5.18;;;;;;;8.33;87.71;100321.03;5093559;28;20459;-75
2022/04/06 02:07:13;;;;;;;17.00;4.45;;;;;;;8.30;87.91;100316.72;5091921;28;20442;-74
2022/04/06 02:09:39;;;;;;;13.82;4.40;;;;;;;8.29;87.76;100317.66;5092129;28;20153;-77
2022/04/06 02:12:10;;;;;;;10.05;4.50;;;;;;;8.29;87.71;100316.81;5091629;28;20122;-74
2022/04/06 02:14:38;;;;;;;16.52;4.18;;;;;;;8.28;87.49;100310.53;5101047;28;20032;-72
2022/04/06 02:17:15;;;;;;;15.77;4.70;;;;;;;8.28;87.03;100318.66;5090220;28;20055;-70
2022/04/06 02:19:46;;;;;;;16.55;4.60;;;;;;;8.27;87.34;100308.78;5096454;28;20046;-71
2022/04/06 02:22:12;;;;;;;11.48;3.78;;;;;;;8.26;86.80;100298.94;5092687;28;20031;-68
2022/04/06 02:24:38;;;;;;;9.70;5.03;;;;;;;8.28;86.56;100312.38;5091544;28;20084;-76
2022/04/06 02:27:07;;;;;;;14.40;4.05;;;;;;;8.26;86.97;100307.06;5092150;28;20085;-67
2022/04/06 02:29:33;;;;;;;13.32;4.32;;;;;;;8.25;87.01;100307.16;5091218;28;20393;-75
2022/04/06 02:31:59;;;;;;;13.68;4.82;;;;;;;8.24;87.02;100300.00;5093469;28;20111;-71
2022/04/06 02:34:24;;;;;;;11.05;4.07;;;;;;;8.22;86.60;100299.25;5092086;28;20119;-74
2022/04/06 02:36:49;;;;;;;12.73;4.00;;;;;;;8.19;87.10;100303.91;5090775;28;20115;-72
2022/04/06 02:39:15;;;;;;;12.57;4.20;;;;;;;8.19;86.51;100303.91;5091140;28;20497;-68
2022/04/06 02:41:41;;;;;;;12.85;4.03;;;;;;;8.17;86.59;100303.16;5096002;28;20107;-71
2022/04/06 02:44:06;;;;;;;11.82;4.22;;;;;;;8.15;86.92;100291.56;5094718;28;20031;-72
2022/04/06 02:46:33;;;;;;;12.73;3.55;;;;;;;8.12;86.49;100288.22;5093354;28;20125;-71
2022/04/06 02:48:58;;;;;;;12.55;4.30;;;;;;;8.10;86.15;100284.72;5106551;28;20042;-71
2022/04/06 02:51:24;;;;;;;17.08;4.20;;;;;;;8.09;86.32;100291.13;5127167;27;20039;-76
2022/04/06 02:53:50;;;;;;;13.80;3.85;;;;;;;8.05;86.27;100286.91;5111115;28;20486;-72
2022/04/06 02:56:15;;;;;;;11.93;3.70;;;;;;;8.04;86.21;100286.03;5105761;28;20063;-72
2022/04/06 02:58:41;;;;;;;11.88;3.35;;;;;;;8.01;86.55;100279.97;5096592;28;20063;-76
2022/04/06 03:01:07;;;;;;;14.32;4.18;;;;;;;8.00;86.49;100278.25;5107930;28;20042;-76
2022/04/06 03:03:32;;;;;;;14.98;3.60;;;;;;;7.99;86.37;100276.53;5095133;28;20030;-71
2022/04/06 03:05:58;;;;;;;10.82;3.83;;;;;;;7.96;86.01;100274.00;5092774;28;20024;-71
2022/04/06 03:08:23;;;;;;;14.80;3.70;;;;;;;7.95;85.92;100272.28;5119849;27;20056;-67
2022/04/06 03:10:49;;;;;;;11.73;3.75;;;;;;;7.86;86.44;100260.25;5111709;28;20028;-74
2022/04/06 03:13:14;;;;;;;12.65;3.72;;;;;;;7.89;85.94;100265.47;5110757;28;20508;-68
2022/04/06 03:15:40;;;;;;;12.60;3.85;;;;;;;7.88;85.86;100271.84;5103711;28;20054;-71
2022/04/06 03:18:06;;;;;;;7.38;2.88;;;;;;;7.87;86.06;100260.13;5094388;28;20123;-71
2022/04/06 03:20:31;;;;;;;10.73;3.08;;;;;;;7.88;86.06;100261.00;5117148;27;20023;-71
2022/04/06 03:22:57;;;;;;;10.07;2.85;;;;;;;7.87;85.38;100245.75;5098575;27;20039;-68
2022/04/06 03:25:23;;;;;;;14.30;4.13;;;;;;;7.86;85.40;100249.44;5111731;28;20023;-75
2022/04/06 03:27:49;;;;;;;12.40;3.40;;;;;;;7.87;85.44;100252.00;5088042;28;20047;-71
2022/04/06 03:30:14;;;;;;;11.80;2.97;;;;;;;7.86;85.88;100253.00;5097835;28;20039;-74
2022/04/06 03:32:41;;;;;;;12.02;3.70;;;;;;;7.85;85.40;100248.56;5099574;28;20529;-72
2022/04/06 03:35:07;;;;;;;13.80;3.30;;;;;;;7.85;85.72;100245.00;5097568;28;20032;-73
2022/04/06 03:37:33;;;;;;;10.02;3.40;;;;;;;7.84;85.21;100236.00;5111961;28;20386;-68
2022/04/06 03:39:59;;;;;;;12.68;3.45;;;;;;;7.85;85.11;100234.16;5089872;28;20437;-71
2022/04/06 03:42:24;;;;;;;9.45;4.10;;;;;;;7.83;85.04;100222.56;5112072;28;20031;-71
2022/04/06 03:44:50;;;;;;;12.00;3.10;;;;;;;7.83;84.44;100223.44;5111344;28;20379;-69
2022/04/06 03:47:16;;;;;;;7.03;2.80;;;;;;;7.82;84.91;100216.28;5101856;28;20055;-75
2022/04/06 03:49:42;;;;;;;11.27;3.60;;;;;;;7.82;84.27;100215.41;5110856;28;20027;-69
2022/04/06 03:52:08;;;;;;;14.13;3.65;;;;;;;7.85;84.45;100220.63;5099027;28;20032;-68
2022/04/06 03:54:33;;;;;;;8.65;2.95;;;;;;;7.83;83.83;100226.16;5090799;28;20038;-72
2022/04/06 03:56:58;;;;;;;6.75;2.85;;;;;;;7.80;84.37;100220.94;5108562;28;20110;-71
2022/04/06 03:59:24;;;;;;;14.95;2.97;;;;;;;7.83;84.12;100228.88;5103150;28;20035;-68
2022/04/06 04:01:50;;;;;;;15.13;3.58;;;;;;;7.83;83.51;100231.56;5103328;27;20094;-72
2022/04/06 04:04:15;;;;;;;10.52;3.17;;;;;;;7.82;83.35;100229.81;5082154;28;20130;-71
2022/04/06 04:06:40;;;;;;;10.32;2.75;;;;;;;7.81;84.34;100227.22;5107719;27;20502;-71
2022/04/06 04:09:07;;;;;;;12.50;2.80;;;;;;;7.83;83.76;100223.44;5108316;28;20040;-68
2022/04/06 04:11:33;;;;;;;13.43;4.05;;;;;;;7.81;83.20;100219.09;5115467;27;20031;-68
2022/04/06 04:13:59;;;;;;;9.45;2.80;;;;;;;7.83;83.08;100219.84;5110617;28;20039;-72
2022/04/06 04:16:25;;;;;;;10.43;2.65;;;;;;;7.83;83.22;100225.25;5108942;28;20051;-72
2022/04/06 04:18:50;;;;;;;11.73;2.90;;;;;;;7.77;83.00;100214.88;5092641;28;20086;-69
2022/04/06 04:21:34;;;;;;;6.28;2.47;;;;;;;7.83;82.69;100215.31;5104888;27;20027;-75
2022/04/06 04:24:00;;;;;;;8.80;2.60;;;;;;;7.82;83.51;100213.56;5099749;28;20027;-72
2022/04/06 04:26:26;;;;;;;7.00;2.53;;;;;;;7.83;83.73;100218.03;5110933;28;20080;-75
2022/04/06 04:28:52;;;;;;;7.35;2.90;;;;;;;7.79;83.69;100215.66;5098172;28;20032;-72
2022/04/06 04:31:18;;;;;;;12.10;2.83;;;;;;;7.83;83.68;100219.84;5107185;28;20023;-75
2022/04/06 04:33:43;;;;;;;7.97;2.95;;;;;;;7.83;83.73;100212.63;5098557;28;20085;-70
2022/04/06 04:36:09;;;;;;;12.68;3.15;;;;;;;7.80;83.79;100207.41;5107880;28;20031;-76
2022/04/06 04:38:36;;;;;;;11.00;3.25;;;;;;;7.84;83.87;100205.34;5107686;28;20086;-76
2022/04/06 04:41:03;;;;;;;11.57;3.15;;;;;;;7.84;84.40;100208.06;5103528;28;20051;-70
2022/04/06 04:43:28;;;;;;;9.35;3.22;;;;;;;7.84;84.32;100205.34;5098561;28;20027;-72
2022/04/06 04:45:55;;;;;;;13.05;4.03;;;;;;;7.86;84.92;100206.97;5072676;28;20483;-71
2022/04/06 04:48:20;;;;;;;13.98;4.07;;;;;;;7.84;84.99;100197.22;5078887;28;20027;-68
2022/04/06 04:50:46;;;;;;;22.95;4.30;;;;;;;7.85;85.36;100197.13;5104446;28;20043;-71
2022/04/06 04:53:11;;;;;;;13.25;3.72;;;;;;;7.86;85.34;100196.13;5101994;28;20446;-71
2022/04/06 04:55:37;;;;;;;23.42;4.65;;;;;;;7.86;85.17;100189.84;5088878;28;20039;-71
2022/04/06 04:58:02;;;;;;;10.68;4.13;;;;;;;7.90;85.62;100192.22;5088536;28;20028;-75
2022/04/06 05:00:28;;;;;;;16.70;4.95;;;;;;;7.91;85.60;100187.69;5089403;28;20555;-71
2022/04/06 05:02:54;;;;;;;18.63;4.72;;;;;;;7.90;85.41;100184.09;5087013;28;20036;-72
2022/04/06 05:05:19;;;;;;;17.88;5.05;;;;;;;7.95;85.47;100185.63;5092838;28;20027;-71
2022/04/06 05:07:44;;;;;;;8.88;4.32;;;;;;;7.96;85.46;100190.91;5088720;28;20502;-68
2022/04/06 05:10:10;;;;;;;21.85;5.22;;;;;;;7.95;85.36;100183.78;5090117;28;20046;-71
2022/04/06 05:12:36;;;;;;;28.92;7.68;;;;;;;7.97;85.55;100191.78;5093893;28;20118;-71
2022/04/06 05:15:04;;;;;;;13.63;4.85;;;;;;;7.95;85.46;100180.19;5095063;28;20042;-67
2022/04/06 05:17:30;;;;;;;13.35;5.22;;;;;;;7.99;85.20;100192.56;5098824;28;22458;-74
2022/04/06 05:19:57;;;;;;;16.85;4.82;;;;;;;8.00;85.86;100188.84;5108922;28;20039;-67
2022/04/06 05:22:23;;;;;;;17.67;4.72;;;;;;;8.01;84.94;100182.47;5096039;28;20081;-67
2022/04/06 05:24:48;;;;;;;16.40;4.45;;;;;;;8.02;85.56;100193.19;5103145;28;20315;-71
2022/04/06 05:27:13;;;;;;;17.67;4.95;;;;;;;8.02;85.45;100179.66;5109079;28;20115;-71
2022/04/06 05:29:39;;;;;;;12.35;4.30;;;;;;;8.02;84.87;100179.66;5098519;28;20032;-74
2022/04/06 05:32:05;;;;;;;21.23;5.45;;;;;;;8.04;85.34;100183.09;5094949;28;20078;-68
2022/04/06 05:34:31;;;;;;;12.75;4.13;;;;;;;8.02;84.75;100165.22;5092139;28;20028;-74
2022/04/06 05:36:56;;;;;;;18.70;3.90;;;;;;;8.06;84.66;100183.00;5091305;28;20115;-70
2022/04/06 05:39:23;;;;;;;15.35;4.80;;;;;;;8.07;84.39;100180.19;5090919;28;20089;-68
2022/04/06 05:41:49;;;;;;;15.55;4.72;;;;;;;8.08;84.05;100170.22;5092077;28;20888;-71
2022/04/06 05:44:15;;;;;;;15.57;4.68;;;;;;;8.09;84.14;100172.81;5091529;28;20024;-71
2022/04/06 05:46:40;;;;;;;9.93;3.70;;;;;;;8.09;83.84;100170.09;5091870;28;20063;-71
2022/04/06 05:49:06;;;;;;;11.90;3.83;;;;;;;8.09;83.68;100159.25;5110010;28;20032;-71
2022/04/06 05:51:32;;;;;;;12.52;3.78;;;;;;;8.12;84.48;100175.28;5113697;28;20040;-66
2022/04/06 05:53:58;;;;;;;9.82;3.92;;;;;;;8.12;83.77;100171.72;5113975;28;20051;-71
2022/04/06 05:56:24;;;;;;;12.23;3.95;;;;;;;8.09;83.83;100167.38;5111295;28;20034;-75
2022/04/06 05:58:49;;;;;;;16.50;3.60;;;;;;;8.12;83.91;100163.59;5105265;28;20036;-69
2022/04/06 06:01:15;;;;;;;8.05;3.45;;;;;;;8.14;83.38;100167.91;5109138;28;20152;-71
2022/04/06 06:03:41;;;;;;;11.38;4.32;;;;;;;8.13;83.90;100168.91;5096890;28;20072;-68
2022/04/06 06:06:06;;;;;;;12.73;3.35;;;;;;;8.16;83.37;100167.81;5108742;28;20047;-70
2022/04/06 06:08:31;;;;;;;14.95;3.80;;;;;;;8.17;83.13;100169.53;5105650;28;20487;-67
2022/04/06 06:10:57;;;;;;;7.13;3.28;;;;;;;8.17;82.40;100172.25;5113833;28;20065;-75
2022/04/06 06:13:23;;;;;;;7.30;2.78;;;;;;;8.23;82.58;100179.06;5112912;28;20027;-67
2022/04/06 06:15:49;;;;;;;6.07;2.28;;;;;;;8.24;81.71;100178.94;5097683;28;20509;-71
2022/04/06 06:18:14;;;;;;;11.50;2.78;;;;;;;8.26;81.30;100177.00;5106232;28;20023;-71
2022/04/06 06:20:40;;;;;;;11.70;2.75;;;;;;;8.26;80.87;100177.00;5111282;28;20070;-68
2022/04/06 06:23:06;;;;;;;10.23;2.05;;;;;;;8.30;79.64;100173.09;5113288;28;20135;-74
2022/04/06 06:25:32;;;;;;;8.52;2.05;;;;;;;8.35;80.06;100181.75;5103100;28;20462;-74
2022/04/06 06:27:57;;;;;;;6.82;2.35;;;;;;;8.32;78.96;100164.81;5113294;28;20035;-70
2022/04/06 06:30:26;;;;;;;7.07;2.38;;;;;;;8.39;78.80;100166.13;5110356;28;20049;-67
2022/04/06 06:32:53;;;;;;;6.65;2.00;;;;;;;8.42;78.33;100174.03;5104544;28;20031;-75
2022/04/06 06:35:20;;;;;;;13.10;2.20;;;;;;;8.42;78.03;100172.19;5105627;28;20735;-75
2022/04/06 06:37:47;;;;;;;10.68;2.60;;;;;;;8.46;77.37;100174.69;5112676;28;20030;-71
2022/04/06 06:40:13;;;;;;;8.35;2.20;;;;;;;8.45;76.80;100164.81;5104631;28;20028;-71
2022/04/06 06:42:39;;;;;;;8.55;1.85;;;;;;;8.44;76.12;100163.97;5124396;27;20040;-75
2022/04/06 06:45:05;;;;;;;5.25;1.80;;;;;;;8.46;75.89;100163.84;5102422;28;20062;-71
2022/04/06 06:47:30;;;;;;;3.97;1.50;;;;;;;8.46;75.14;100166.56;5091797;28;20082;-71
2022/04/06 06:49:56;;;;;;;4.75;2.05;;;;;;;8.47;75.39;100165.56;5111276;28;20063;-71
2022/04/06 06:52:21;;;;;;;5.45;2.00;;;;;;;8.50;75.03;100155.38;5098458;28;20027;-70
2022/04/06 06:54:47;;;;;;;9.15;2.10;;;;;;;8.48;75.29;100142.88;5112572;28;20065;-69
2022/04/06 06:57:13;;;;;;;6.78;1.98;;;;;;;8.56;73.53;100168.44;5102970;28;20068;-70
2022/04/06 06:59:38;;;;;;;6.22;1.90;;;;;;;8.58;73.92;100147.53;5107877;28;20480;-74
2022/04/06 07:02:04;;;;;;;6.20;1.25;;;;;;;8.64;74.71;100157.03;5108201;28;20027;-70
2022/04/06 07:04:29;;;;;;;10.00;1.48;;;;;;;8.67;74.46;100156.78;5100201;28;20032;-70
2022/04/06 07:06:55;;;;;;;5.80;1.80;;;;;;;8.68;74.20;100159.41;5107589;28;20032;-71
2022/04/06 07:09:20;;;;;;;4.18;1.90;;;;;;;8.69;73.83;100154.84;5100026;28;20036;-73
2022/04/06 07:11:46;;;;;;;6.55;1.70;;;;;;;8.71;74.05;100154.72;5112308;28;20127;-68
2022/04/06 07:14:12;;;;;;;6.43;1.65;;;;;;;8.70;73.99;100159.28;5110193;28;20039;-67
2022/04/06 07:16:37;;;;;;;5.10;1.13;;;;;;;8.70;74.03;100153.84;5107815;28;20038;-75
2022/04/06 07:19:02;;;;;;;5.55;1.85;;;;;;;8.72;73.50;100153.72;5105116;28;20053;-68
2022/04/06 07:21:28;;;;;;;6.90;2.45;;;;;;;8.74;73.98;100151.78;5110991;28;20043;-70
2022/04/06 07:23:55;;;;;;;6.15;2.45;;;;;;;8.75;74.04;100150.78;5093343;28;20387;-70
2022/04/06 07:26:21;;;;;;;4.28;1.63;;;;;;;8.76;73.85;100144.38;5110557;28;20039;-70
2022/04/06 07:28:47;;;;;;;4.00;1.52;;;;;;;8.81;75.19;100139.47;5097095;28;20089;-70
2022/04/06 07:31:13;;;;;;;5.35;2.15;;;;;;;8.86;75.81;100134.56;5102717;28;20035;-70
2022/04/06 07:33:40;;;;;;;10.40;2.30;;;;;;;8.86;76.05;100139.97;5090242;28;20036;-68
2022/04/06 07:36:06;;;;;;;7.00;2.08;;;;;;;8.87;76.93;100137.16;5109822;28;20039;-70
2022/04/06 07:38:31;;;;;;;6.22;2.50;;;;;;;8.86;77.18;100121.88;5100459;28;20355;-67
2022/04/06 07:40:57;;;;;;;6.95;2.65;;;;;;;8.88;77.40;100133.47;5108731;28;20023;-68
2022/04/06 07:43:24;;;;;;;13.02;4.35;;;;;;;8.85;77.63;100124.69;5096445;28;20031;-67
2022/04/06 07:45:49;;;;;;;7.22;2.58;;;;;;;8.92;77.98;100115.13;5109854;28;20486;-71
2022/04/06 07:48:14;;;;;;;13.20;3.05;;;;;;;8.96;79.17;100116.59;5091593;28;20024;-70
2022/04/06 07:50:40;;;;;;;10.98;3.30;;;;;;;9.02;78.29;100115.25;5103676;28;20043;-74
2022/04/06 07:53:06;;;;;;;8.63;3.05;;;;;;;9.12;78.51;100114.41;5111285;28;20103;-71
2022/04/06 07:55:33;;;;;;;9.30;3.13;;;;;;;9.29;79.09;100104.09;5105674;28;20040;-71
2022/04/06 07:57:58;;;;;;;9.73;3.08;;;;;;;9.43;77.32;100101.16;5108982;28;20041;-74
2022/04/06 08:00:24;;;;;;;10.05;2.97;;;;;;;9.60;76.73;100102.50;5105182;28;20398;-68
2022/04/06 08:02:51;;;;;;;13.13;3.40;;;;;;;9.76;76.66;100099.44;5095849;28;20439;-70
2022/04/06 08:05:18;;;;;;;9.57;2.83;;;;;;;9.80;76.23;100109.06;5109679;28;20063;-70
2022/04/06 08:07:48;;;;;;;7.30;2.60;;;;;;;9.81;77.20;100105.34;5106330;28;20031;-70
2022/04/06 08:10:15;;;;;;;9.93;3.22;;;;;;;9.74;76.29;100096.81;5090851;28;20036;-76
2022/04/06 08:12:41;;;;;;;10.77;2.88;;;;;;;9.71;76.17;100108.81;5104058;28;20080;-68
2022/04/06 08:15:08;;;;;;;7.68;3.38;;;;;;;9.64;76.28;100095.84;5109616;28;20032;-71
2022/04/06 08:17:37;;;;;;;9.43;3.03;;;;;;;9.56;76.57;100096.47;5103073;28;20111;-75
2022/04/06 08:20:04;;;;;;;10.93;2.72;;;;;;;9.48;77.40;100100.78;5110568;28;20035;-71
2022/04/06 08:22:30;;;;;;;10.35;3.20;;;;;;;9.43;77.43;100101.16;5111056;28;20039;-71
2022/04/06 08:24:58;;;;;;;11.70;3.10;;;;;;;9.34;76.72;100093.75;5104567;28;20044;-74
2022/04/06 08:27:27;;;;;;;7.30;2.88;;;;;;;9.33;76.99;100111.03;5111478;28;20050;-71
2022/04/06 08:29:59;;;;;;;6.60;2.80;;;;;;;9.31;77.32;100113.84;5093844;28;20044;-71
2022/04/06 08:32:25;;;;;;;10.75;3.05;;;;;;;9.25;76.66;100103.47;5101913;28;20077;-69
2022/04/06 08:34:51;;;;;;;9.60;2.70;;;;;;;9.25;77.50;100106.19;5103708;28;20067;-70
2022/04/06 08:37:16;;;;;;;9.07;2.60;;;;;;;9.20;77.91;100102.97;5104785;28;20043;-75
2022/04/06 08:39:42;;;;;;;8.93;3.08;;;;;;;9.21;77.72;100101.97;5101594;28;20032;-71
2022/04/06 08:42:07;;;;;;;15.75;2.75;;;;;;;9.24;77.77;100098.16;5105489;28;20031;-71
2022/04/06 08:44:32;;;;;;;6.75;2.75;;;;;;;9.26;77.82;100096.19;5105792;28;20379;-70
2022/04/06 08:47:04;;;;;;;10.93;3.20;;;;;;;9.29;76.97;100093.25;5101087;28;20755;-67
2022/04/06 08:49:30;;;;;;;11.63;2.80;;;;;;;9.31;77.64;100086.69;5088186;28;20513;-71
2022/04/06 08:51:56;;;;;;;5.30;2.53;;;;;;;9.41;77.46;100079.53;5104752;28;20032;-75
2022/04/06 08:54:25;;;;;;;10.50;2.60;;;;;;;9.55;77.68;100092.00;5110496;28;20053;-74
2022/04/06 08:56:50;;;;;;;8.10;2.47;;;;;;;9.63;77.27;100088.69;5104252;28;20044;-70
2022/04/06 08:59:16;;;;;;;9.52;2.78;;;;;;;9.62;76.66;100084.25;5104532;28;20069;-71
2022/04/06 09:01:42;;;;;;;7.90;2.72;;;;;;;9.63;76.45;100091.41;5108667;28;20130;-71
2022/04/06 09:04:07;;;;;;;12.85;3.00;;;;;;;9.55;76.36;100086.56;5101563;28;20035;-74
2022/04/06 09:06:40;;;;;;;8.18;4.00;;;;;;;9.64;77.76;100095.84;5110166;28;20501;-74
2022/04/06 09:09:08;;;;;;;8.32;2.58;;;;;;;9.71;78.01;100084.38;5095557;28;20062;-68
2022/04/06 09:11:42;;;;;;;10.05;3.00;;;;;;;9.83;77.69;100093.34;5102969;28;20039;-69
2022/04/06 09:14:08;;;;;;;16.00;3.35;;;;;;;9.87;77.29;100081.25;5110298;28;20440;-70
2022/04/06 09:16:33;;;;;;;9.73;3.97;;;;;;;9.92;77.78;100098.03;5107202;28;20043;-68
2022/04/06 09:19:13;;;;;;;8.82;3.08;;;;;;;9.91;77.53;100095.44;5076250;28;20024;-70
2022/04/06 09:21:45;;;;;;;9.57;2.92;;;;;;;9.88;78.31;100098.41;5108769;28;20137;-74
2022/04/06 09:24:19;;;;;;;9.83;4.43;;;;;;;9.89;78.52;100089.28;5107470;28;20055;-68
2022/04/06 09:26:58;;;;;;;6.28;2.65;;;;;;;9.91;78.39;100073.72;5110222;28;20285;-68
2022/04/06 09:29:24;;;;;;;10.38;3.45;;;;;;;9.89;78.00;100089.28;5110044;28;20046;-69
2022/04/06 09:31:49;;;;;;;15.02;3.40;;;;;;;9.88;77.85;100087.53;5099103;28;20040;-71
2022/04/06 09:34:19;;;;;;;9.00;2.67;;;;;;;9.84;77.46;100084.25;5097459;28;20122;-70
2022/04/06 09:36:45;;;;;;;8.32;2.50;;;;;;;9.78;77.67;100094.72;5091740;28;20042;-69
2022/04/06 09:39:11;;;;;;;7.53;2.60;;;;;;;9.75;77.22;100084.97;5101182;28;20023;-68
2022/04/06 09:41:57;;;;;;;5.57;2.92;;;;;;;9.74;77.88;100085.09;5108720;28;20390;-73
2022/04/06 09:50:22;;;;;;;7.47;2.25;;;;;;;9.69;78.15;100089.03;5095802;28;20413;-68
2022/04/06 09:52:53;;;;;;;7.35;2.80;;;;;;;9.70;78.13;100079.94;5095414;28;20433;-68
2022/04/06 09:55:20;;;;;;;10.15;3.42;;;;;;;9.75;78.60;100087.69;5111292;28;20110;-71
2022/04/06 09:57:55;;;;;;;5.97;2.65;;;;;;;9.76;78.98;100073.13;5112451;28;20032;-70
2022/04/06 10:00:26;;;;;;;6.10;3.10;;;;;;;9.78;78.22;100065.69;5113223;28;20502;-70
2022/04/06 10:02:54;;;;;;;12.63;3.30;;;;;;;9.78;79.02;100078.41;5093163;28;20036;-73
2022/04/06 10:05:23;;;;;;;7.38;2.92;;;;;;;9.81;79.29;100076.31;5112127;28;20088;-68
2022/04/06 10:07:51;;;;;;;8.20;3.45;;;;;;;9.83;78.91;100078.91;5101574;28;20429;-69
2022/04/06 10:10:17;;;;;;;6.85;2.67;;;;;;;9.87;79.00;100075.81;5112436;28;20061;-68
2022/04/06 10:12:44;;;;;;;11.48;3.35;;;;;;;9.88;78.73;100069.38;5114841;27;20024;-71
2022/04/06 10:15:10;;;;;;;8.38;3.20;;;;;;;9.87;80.76;100072.25;5123852;27;20042;-70
2022/04/06 10:17:36;;;;;;;10.93;3.15;;;;;;;9.83;79.59;100060.75;5104441;28;20032;-68
2022/04/06 10:20:07;;;;;;;9.77;3.33;;;;;;;9.81;78.88;100068.19;5112894;28;20045;-73
2022/04/06 10:22:40;;;;;;;10.45;3.47;;;;;;;9.76;79.84;100067.69;5111939;28;20127;-75
2022/04/06 10:25:25;;;;;;;8.10;2.97;;;;;;;9.78;81.05;100062.13;5099981;28;20031;-68
2022/04/06 10:27:55;;;;;;;8.32;3.42;;;;;;;9.76;80.35;100059.53;5108722;28;20031;-67
2022/04/06 10:30:24;;;;;;;7.30;2.40;;;;;;;9.73;80.38;100050.78;5097556;28;20044;-73
2022/04/06 10:32:51;;;;;;;7.90;3.28;;;;;;;9.74;80.63;100064.22;5099592;28;20031;-73
2022/04/06 10:35:27;;;;;;;9.20;2.85;;;;;;;9.73;79.96;100056.22;5111013;28;20059;-72
2022/04/06 10:37:56;;;;;;;11.35;3.38;;;;;;;9.75;80.14;100052.38;5112775;28;20411;-71
2022/04/06 10:40:22;;;;;;;7.70;2.78;;;;;;;9.77;79.64;100060.41;5111071;28;20038;-73
2022/04/06 10:42:49;;;;;;;6.97;3.70;;;;;;;9.81;79.96;100054.59;5112779;28;20027;-71
2022/04/06 10:45:29;;;;;;;8.32;3.95;;;;;;;9.83;79.57;100055.31;5099677;27;20023;-71
2022/04/06 10:48:08;;;;;;;7.50;3.33;;;;;;;9.85;79.48;100039.78;5093586;27;20478;-71
2022/04/06 10:50:34;;;;;;;8.30;3.38;;;;;;;9.78;79.52;100043.09;5095767;28;20089;-71
2022/04/06 10:53:18;;;;;;;8.27;3.10;;;;;;;9.73;79.92;100042.63;5103563;28;20112;-70
2022/04/06 10:55:58;;;;;;;19.15;3.40;;;;;;;9.73;80.13;100042.63;5090888;28;20032;-75
2022/04/06 10:58:26;;;;;;;9.25;2.88;;;;;;;9.73;79.42;100032.63;5103955;28;20040;-71
2022/04/06 11:01:15;;;;;;;9.23;3.00;;;;;;;9.81;79.61;100032.88;5119150;27;20125;-70
2022/04/06 11:03:44;;;;;;;6.15;2.67;;;;;;;9.83;78.17;100030.00;5108246;27;20067;-75
2022/04/06 11:06:09;;;;;;;6.40;2.70;;;;;;;9.80;78.18;100028.44;5112298;28;20030;-71
2022/04/06 11:11:46;;;;;;;8.07;3.17;;;;;;;9.94;79.34;100030.00;5112261;28;20035;-71
2022/04/06 11:14:27;;;;;;;4.35;2.90;;;;;;;10.00;78.21;100031.34;5112001;28;20049;-71
2022/04/06 11:16:53;;;;;;;9.50;3.90;;;;;;;9.92;77.56;100019.25;5106314;28;20055;-68
2022/04/06 11:19:18;;;;;;;6.35;3.03;;;;;;;9.95;77.41;100023.56;5097001;28;20110;-71
2022/04/06 11:21:52;;;;;;;8.63;3.40;;;;;;;9.98;78.22;100015.19;5105399;28;20069;-68
2022/04/06 11:24:20;;;;;;;12.07;3.25;;;;;;;10.02;77.85;100004.88;5111577;28;20027;-75
2022/04/06 11:26:45;;;;;;;8.45;2.85;;;;;;;10.05;77.89;100023.66;5111342;27;20552;-74
2022/04/06 11:29:12;;;;;;;7.82;2.83;;;;;;;10.05;78.00;100004.66;5110568;28;20027;-72
2022/04/06 11:31:57;;;;;;;7.88;2.55;;;;;;;10.10;78.12;100007.84;5109093;28;20023;-70
2022/04/06 11:34:34;;;;;;;7.13;2.90;;;;;;;10.12;77.88;100003.16;5105049;28;20165;-68
2022/04/06 11:37:01;;;;;;;8.27;2.75;;;;;;;10.19;77.21;100007.91;5110294;28;20033;-68
2022/04/06 11:39:31;;;;;;;8.02;3.10;;;;;;;10.17;77.18;99998.19;5095770;28;20517;-71
2022/04/06 11:41:58;;;;;;;5.28;2.60;;;;;;;10.19;76.86;99998.91;5110348;28;20035;-74